createdAt,value
2018-03-17T00:02:01.407Z,99.90
2018-03-17T00:04:29.537Z,99.90
2018-03-17T00:06:57.723Z,99.90
2018-03-17T00:09:25.833Z,99.90
2018-03-17T00:11:53.952Z,99.90
2018-03-17T00:14:22.161Z,99.90
2018-03-17T00:16:50.332Z,99.90
2018-03-17T00:19:18.455Z,99.90
2018-03-17T00:21:46.577Z,99.90
2018-03-17T00:24:14.672Z,99.90
2018-03-17T00:26:42.762Z,99.90
2018-03-17T00:29:10.927Z,99.90
2018-03-17T00:31:41.508Z,99.90
2018-03-17T00:34:09.605Z,99.90
2018-03-17T00:36:37.695Z,99.90
2018-03-17T00:39:05.813Z,99.90
2018-03-17T00:41:35.401Z,99.90
2018-03-17T00:44:03.506Z,99.90
2018-03-17T00:46:31.620Z,99.90
2018-03-17T00:49:00.519Z,99.90
2018-03-17T00:51:29.392Z,99.90
2018-03-17T00:53:57.565Z,99.90
2018-03-17T00:56:25.680Z,99.90
2018-03-17T00:58:54.526Z,99.90
2018-03-17T01:01:22.624Z,99.90
2018-03-17T01:03:50.720Z,99.90
2018-03-17T01:06:18.835Z,99.90
2018-03-17T01:08:47.717Z,99.90
2018-03-17T01:11:15.802Z,99.90
2018-03-17T01:13:44.289Z,99.90
2018-03-17T01:16:12.371Z,99.90
2018-03-17T01:18:40.562Z,99.90
2018-03-17T01:21:08.653Z,99.90
2018-03-17T01:23:37.359Z,99.90
2018-03-17T01:26:06.218Z,99.90
2018-03-17T01:28:34.311Z,99.90
2018-03-17T01:31:02.857Z,99.90
2018-03-17T01:33:30.981Z,99.90
2018-03-17T01:35:59.102Z,99.90
2018-03-17T01:38:27.230Z,99.90
2018-03-17T01:40:55.323Z,99.90
2018-03-17T01:43:23.445Z,99.90
2018-03-17T01:45:51.537Z,99.90
2018-03-17T01:48:19.629Z,99.90
2018-03-17T01:50:48.507Z,99.90
2018-03-17T01:53:16.588Z,99.90
2018-03-17T01:55:44.699Z,99.90
2018-03-17T01:58:13.544Z,99.90
2018-03-17T02:00:41.656Z,99.90
2018-03-17T02:03:09.767Z,99.90
2018-03-17T02:05:37.862Z,99.90
2018-03-17T02:08:06.723Z,99.90
2018-03-17T02:10:34.859Z,99.90
2018-03-17T02:13:02.928Z,99.90
2018-03-17T02:15:31.801Z,99.90
2018-03-17T02:17:59.897Z,99.90
2018-03-17T02:20:28.013Z,99.90
2018-03-17T02:22:56.080Z,99.90
2018-03-17T02:25:25.011Z,99.90
2018-03-17T02:27:53.103Z,99.90
2018-03-17T02:30:21.248Z,99.90
2018-03-17T02:32:49.345Z,99.90
2018-03-17T02:35:18.311Z,99.90
2018-03-17T02:37:47.020Z,99.90
2018-03-17T02:40:15.153Z,99.90
2018-03-17T02:42:43.898Z,99.90
2018-03-17T02:45:12.765Z,99.90
2018-03-17T02:47:40.945Z,99.90
2018-03-17T02:50:09.076Z,99.90
2018-03-17T02:52:37.235Z,99.90
2018-03-17T02:55:06.054Z,99.90
2018-03-17T02:57:34.256Z,99.90
2018-03-17T03:00:02.332Z,99.90
2018-03-17T03:02:30.441Z,99.90
2018-03-17T03:04:59.292Z,99.90
2018-03-17T03:07:27.406Z,99.90
2018-03-17T03:09:55.556Z,99.90
2018-03-17T03:12:23.645Z,99.90
2018-03-17T03:14:51.758Z,99.90
2018-03-17T03:17:19.893Z,99.90
2018-03-17T03:19:48.010Z,99.90
2018-03-17T03:22:16.104Z,99.90
2018-03-17T03:24:44.210Z,99.90
2018-03-17T03:27:12.295Z,99.90
2018-03-17T03:29:40.384Z,99.90
2018-03-17T03:32:09.266Z,99.90
2018-03-17T03:34:37.837Z,99.90
2018-03-17T03:37:05.944Z,99.90
2018-03-17T03:39:34.131Z,99.90
2018-03-17T03:42:02.215Z,99.90
2018-03-17T03:44:30.310Z,99.90
2018-03-17T03:46:58.407Z,99.90
2018-03-17T03:49:27.315Z,99.90
2018-03-17T03:51:56.181Z,99.90
2018-03-17T03:54:24.276Z,99.90
2018-03-17T03:56:52.374Z,99.90
2018-03-17T03:59:21.235Z,99.90
2018-03-17T04:01:49.325Z,99.90
2018-03-17T04:04:17.415Z,99.90
2018-03-17T04:06:46.011Z,99.90
2018-03-17T04:09:14.107Z,99.90
2018-03-17T04:11:42.292Z,99.90
2018-03-17T04:14:10.394Z,99.90
2018-03-17T04:16:39.367Z,99.90
2018-03-17T04:19:07.632Z,99.90
2018-03-17T04:21:35.734Z,99.90
2018-03-17T04:24:03.819Z,99.90
2018-03-17T04:26:31.914Z,99.90
2018-03-17T04:29:00.019Z,99.90
2018-03-17T04:31:28.878Z,99.90
2018-03-17T04:33:56.962Z,99.90
2018-03-17T04:36:25.163Z,99.90
2018-03-17T04:38:53.333Z,99.90
2018-03-17T04:41:21.452Z,99.90
2018-03-17T04:43:49.640Z,99.90
2018-03-17T04:46:17.793Z,99.90
2018-03-17T04:48:45.883Z,99.90
2018-03-17T04:51:13.985Z,99.90
2018-03-17T04:53:42.127Z,99.90
2018-03-17T04:56:10.231Z,99.90
2018-03-17T04:58:38.334Z,99.90
2018-03-17T05:01:06.644Z,99.90
2018-03-17T05:03:35.508Z,99.90
2018-03-17T05:06:03.647Z,99.90
2018-03-17T05:08:31.750Z,99.90
2018-03-17T05:10:59.842Z,99.90
2018-03-17T05:13:27.967Z,99.90
2018-03-17T05:15:56.067Z,99.90
2018-03-17T05:18:24.208Z,99.90
2018-03-17T05:20:52.321Z,99.90
2018-03-17T05:23:20.636Z,99.90
2018-03-17T05:25:49.504Z,99.90
2018-03-17T05:28:17.592Z,99.90
2018-03-17T05:30:45.879Z,99.90
2018-03-17T05:33:14.568Z,99.90
2018-03-17T05:35:42.695Z,99.90
2018-03-17T05:38:10.804Z,99.90
2018-03-17T05:40:38.928Z,99.90
2018-03-17T05:43:07.051Z,99.90
2018-03-17T05:45:35.207Z,99.90
2018-03-17T05:48:03.332Z,99.90
2018-03-17T05:50:31.483Z,99.90
2018-03-17T05:52:59.563Z,99.90
2018-03-17T05:55:27.717Z,99.90
2018-03-17T05:57:55.873Z,99.90
2018-03-17T06:00:23.938Z,99.90
2018-03-17T06:02:52.875Z,99.90
2018-03-17T06:05:21.019Z,99.90
2018-03-17T06:07:50.066Z,99.90
2018-03-17T06:10:18.184Z,99.90
2018-03-17T06:12:46.276Z,99.90
2018-03-17T06:15:14.354Z,99.90
2018-03-17T06:17:42.455Z,99.90
2018-03-17T06:20:11.605Z,99.90
2018-03-17T06:22:39.681Z,99.90
2018-03-17T06:25:07.886Z,99.90
2018-03-17T06:27:36.001Z,99.90
2018-03-17T06:30:04.108Z,99.90
2018-03-17T06:32:33.034Z,99.90
2018-03-17T06:35:01.916Z,99.90
2018-03-17T06:37:30.850Z,99.90
2018-03-17T06:39:58.940Z,99.90
2018-03-17T06:42:27.104Z,99.90
2018-03-17T06:44:56.198Z,99.90
2018-03-17T06:47:24.288Z,99.90
2018-03-17T06:49:52.384Z,99.90
2018-03-17T06:52:20.558Z,99.90
2018-03-17T06:54:48.670Z,99.90
2018-03-17T06:57:16.802Z,99.90
2018-03-17T06:59:44.991Z,99.90
2018-03-17T07:02:13.116Z,99.90
2018-03-17T07:04:41.235Z,99.90
2018-03-17T07:07:09.416Z,99.90
2018-03-17T07:09:37.525Z,99.90
2018-03-17T07:12:05.644Z,99.90
2018-03-17T07:14:33.739Z,99.90
2018-03-17T07:17:01.858Z,99.90
2018-03-17T07:19:29.957Z,99.90
2018-03-17T07:21:58.060Z,99.90
2018-03-17T07:24:27.010Z,99.90
2018-03-17T07:26:55.098Z,99.90
2018-03-17T07:29:23.208Z,99.90
2018-03-17T07:31:51.691Z,99.90
2018-03-17T07:34:19.880Z,99.90
2018-03-17T07:36:47.972Z,99.90
2018-03-17T07:39:16.082Z,99.90
2018-03-17T07:41:51.336Z,99.90
2018-03-17T07:44:20.181Z,99.90
2018-03-17T07:46:48.317Z,99.90
2018-03-17T07:49:17.204Z,99.90
2018-03-17T07:51:45.298Z,99.90
2018-03-17T07:54:13.479Z,99.90
2018-03-17T07:56:41.664Z,99.90
2018-03-17T07:59:09.795Z,99.90
2018-03-17T08:01:37.987Z,99.90
2018-03-17T08:04:06.079Z,99.90
2018-03-17T08:06:34.189Z,99.90
2018-03-17T08:09:02.294Z,99.90
2018-03-17T08:11:30.428Z,99.90
2018-03-17T08:13:58.552Z,99.90
2018-03-17T08:16:26.643Z,99.90
2018-03-17T08:18:54.807Z,99.90
2018-03-17T08:21:22.947Z,99.90
2018-03-17T08:23:51.149Z,99.90
2018-03-17T08:26:19.322Z,99.90
2018-03-17T08:28:47.487Z,99.90
2018-03-17T08:31:27.038Z,99.90
2018-03-17T08:33:56.147Z,99.90
2018-03-17T08:36:24.245Z,99.90
2018-03-17T08:38:52.349Z,99.90
2018-03-17T08:41:21.379Z,99.90
2018-03-17T08:43:49.545Z,99.90
2018-03-17T08:46:17.729Z,99.90
2018-03-17T08:48:46.735Z,99.90
2018-03-17T08:51:14.872Z,99.90
2018-03-17T08:53:43.031Z,99.90
2018-03-17T08:56:11.160Z,99.90
2018-03-17T08:58:39.276Z,99.90
2018-03-17T09:01:07.355Z,99.80
2018-03-17T09:03:35.522Z,99.40
2018-03-17T09:06:05.578Z,98.30
2018-03-17T09:08:33.670Z,98.50
2018-03-17T09:11:01.792Z,99.30
2018-03-17T09:13:29.908Z,98.30
2018-03-17T09:15:58.028Z,97.30
2018-03-17T09:18:26.120Z,97.00
2018-03-17T09:20:54.266Z,95.80
2018-03-17T09:23:22.393Z,95.60
2018-03-17T09:25:50.491Z,95.20
2018-03-17T09:28:18.674Z,95.40
2018-03-17T09:30:46.914Z,95.80
2018-03-17T09:33:15.056Z,95.60
2018-03-17T09:35:43.709Z,95.70
2018-03-17T09:38:11.899Z,94.90
2018-03-17T09:40:40.055Z,93.90
2018-03-17T09:43:08.932Z,92.40
2018-03-17T09:45:37.056Z,92.40
2018-03-17T09:48:05.184Z,90.90
2018-03-17T09:50:33.410Z,89.20
2018-03-17T09:53:01.571Z,88.20
2018-03-17T09:55:31.624Z,85.60
2018-03-17T09:58:00.576Z,84.10
2018-03-17T10:00:28.755Z,84.10
2018-03-17T10:02:56.897Z,84.80
2018-03-17T10:05:24.971Z,84.20
2018-03-17T10:07:53.871Z,81.20
2018-03-17T10:10:21.987Z,81.20
2018-03-17T10:12:50.115Z,83.70
2018-03-17T10:15:19.020Z,86.30
2018-03-17T10:17:47.174Z,87.60
2018-03-17T10:20:15.291Z,89.70
2018-03-17T10:22:43.415Z,89.70
2018-03-17T10:25:11.625Z,89.60
2018-03-17T10:27:39.757Z,84.90
2018-03-17T10:30:07.854Z,82.50
2018-03-17T10:32:36.249Z,83.10
2018-03-17T10:35:05.405Z,79.70
2018-03-17T10:37:33.626Z,79.60
2018-03-17T10:40:02.026Z,77.80
2018-03-17T10:42:30.142Z,77.20
2018-03-17T10:44:58.293Z,76.80
2018-03-17T10:47:26.363Z,75.30
2018-03-17T10:49:54.553Z,75.10
2018-03-17T10:52:22.778Z,76.00
2018-03-17T10:54:52.082Z,76.80
2018-03-17T10:57:21.126Z,77.80
2018-03-17T10:59:50.131Z,77.70
2018-03-17T11:02:18.360Z,75.10
2018-03-17T11:04:46.528Z,74.70
2018-03-17T11:07:21.146Z,72.90
2018-03-17T11:09:49.471Z,71.30
2018-03-17T11:12:17.597Z,73.70
2018-03-17T11:14:45.692Z,74.00
2018-03-17T11:17:13.852Z,73.00
2018-03-17T11:19:42.261Z,72.30
2018-03-17T11:22:12.134Z,71.90
2018-03-17T11:24:40.222Z,73.00
2018-03-17T11:27:08.551Z,74.30
2018-03-17T11:29:37.419Z,75.70
2018-03-17T11:32:05.557Z,75.60
2018-03-17T11:34:42.140Z,75.90
2018-03-17T11:37:10.301Z,75.50
2018-03-17T11:39:38.428Z,74.20
2018-03-17T11:42:12.980Z,74.70
2018-03-17T11:44:49.289Z,74.20
2018-03-17T11:47:17.398Z,75.60
2018-03-17T11:49:45.520Z,74.80
2018-03-17T11:52:20.484Z,72.90
2018-03-17T11:54:48.592Z,71.60
2018-03-17T11:57:17.711Z,71.90
2018-03-17T11:59:46.750Z,74.50
2018-03-17T12:02:15.666Z,74.60
2018-03-17T12:04:47.343Z,73.10
2018-03-17T12:07:15.617Z,71.90
2018-03-17T12:09:43.816Z,71.20
2018-03-17T12:12:11.987Z,72.50
2018-03-17T12:14:40.157Z,72.30
2018-03-17T12:17:09.003Z,74.50
2018-03-17T12:19:37.901Z,74.00
2018-03-17T12:22:06.133Z,74.00
2018-03-17T12:24:34.575Z,73.30
2018-03-17T12:27:02.722Z,71.50
2018-03-17T12:29:31.845Z,71.70
2018-03-17T12:31:59.968Z,70.00
2018-03-17T12:34:29.014Z,71.50
2018-03-17T12:36:57.161Z,71.40
2018-03-17T12:39:25.248Z,68.10
2018-03-17T12:41:54.728Z,69.50
2018-03-17T12:44:22.905Z,69.50
2018-03-17T12:46:51.801Z,68.50
2018-03-17T12:49:20.124Z,68.60
2018-03-17T12:51:48.902Z,68.50
2018-03-17T12:54:16.991Z,69.60
2018-03-17T12:56:45.097Z,67.90
2018-03-17T12:59:13.213Z,66.90
2018-03-17T13:01:41.374Z,69.90
2018-03-17T13:04:09.480Z,70.50
2018-03-17T13:06:37.713Z,71.60
2018-03-17T13:09:05.857Z,72.00
2018-03-17T13:11:33.985Z,72.10
2018-03-17T13:14:02.209Z,70.80
2018-03-17T13:16:30.433Z,70.50
2018-03-17T13:18:58.536Z,69.80
2018-03-17T13:21:26.724Z,69.20
2018-03-17T13:23:54.853Z,67.70
2018-03-17T13:26:23.890Z,71.70
2018-03-17T13:28:52.021Z,71.70
2018-03-17T13:31:20.210Z,72.70
2018-03-17T13:33:48.351Z,71.60
2018-03-17T13:36:28.395Z,71.80
2018-03-17T13:38:58.027Z,74.50
2018-03-17T13:41:26.248Z,74.40
2018-03-17T13:43:54.327Z,75.60
2018-03-17T13:46:22.540Z,75.90
2018-03-17T13:48:50.667Z,76.30
2018-03-17T13:51:19.509Z,76.80
2018-03-17T13:53:47.622Z,76.70
2018-03-17T13:56:15.764Z,75.90
2018-03-17T13:58:43.981Z,75.50
2018-03-17T14:01:12.070Z,73.60
2018-03-17T14:03:40.288Z,73.60
2018-03-17T14:06:09.155Z,74.60
2018-03-17T14:08:37.282Z,74.50
2018-03-17T14:11:05.413Z,74.50
2018-03-17T14:13:33.585Z,74.70
2018-03-17T14:16:01.704Z,74.70
2018-03-17T14:18:29.803Z,77.20
2018-03-17T14:20:57.896Z,75.70
2018-03-17T14:23:26.023Z,77.60
2018-03-17T14:25:54.144Z,77.70
2018-03-17T14:28:22.249Z,79.80
2018-03-17T14:30:50.658Z,80.60
2018-03-17T14:33:18.842Z,80.50
2018-03-17T14:35:47.054Z,80.00
2018-03-17T14:38:15.086Z,80.40
2018-03-17T14:40:43.748Z,80.50
2018-03-17T14:43:11.863Z,80.90
2018-03-17T14:45:40.729Z,81.40
2018-03-17T14:48:08.914Z,81.40
2018-03-17T14:50:37.034Z,81.40
2018-03-17T14:53:06.227Z,83.30
2018-03-17T14:55:34.498Z,83.30
2018-03-17T14:58:02.672Z,84.10
2018-03-17T15:00:30.771Z,84.50
2018-03-17T15:02:58.982Z,85.00
2018-03-17T15:05:27.944Z,83.60
2018-03-17T15:07:56.140Z,83.40
2018-03-17T15:10:24.289Z,83.80
2018-03-17T15:12:52.519Z,83.40
2018-03-17T15:15:21.424Z,84.00
2018-03-17T15:17:49.512Z,84.60
2018-03-17T15:20:17.730Z,83.70
2018-03-17T15:22:45.828Z,83.40
2018-03-17T15:25:13.956Z,83.80
2018-03-17T15:27:42.229Z,84.00
2018-03-17T15:30:11.163Z,84.50
2018-03-17T15:32:39.332Z,84.50
2018-03-17T15:35:07.445Z,84.20
2018-03-17T15:37:35.744Z,83.70
2018-03-17T15:40:03.869Z,83.60
2018-03-17T15:42:32.013Z,83.60
2018-03-17T15:45:00.199Z,83.10
2018-03-17T15:47:35.569Z,84.40
2018-03-17T15:50:03.787Z,85.00
2018-03-17T15:55:15.863Z,85.70
2018-03-17T15:57:45.194Z,85.90
2018-03-17T16:00:13.283Z,85.80
2018-03-17T16:02:41.411Z,86.40
2018-03-17T16:05:09.544Z,87.20
2018-03-17T16:07:38.400Z,89.50
2018-03-17T16:10:06.528Z,89.50
2018-03-17T16:12:35.998Z,89.30
2018-03-17T16:15:04.197Z,88.90
2018-03-17T16:20:39.357Z,90.00
2018-03-17T16:23:07.554Z,90.70
2018-03-17T16:25:35.832Z,91.40
2018-03-17T16:28:03.967Z,92.20
2018-03-17T16:30:32.115Z,92.80
2018-03-17T16:33:00.266Z,93.30
2018-03-17T16:35:28.903Z,93.30
2018-03-17T16:37:57.017Z,93.70
2018-03-17T16:40:25.332Z,94.20
2018-03-17T16:42:53.448Z,94.60
2018-03-17T16:45:21.619Z,95.50
2018-03-17T16:47:49.743Z,95.80
2018-03-17T16:50:17.852Z,95.80
2018-03-17T16:52:45.960Z,95.90
2018-03-17T16:55:14.075Z,96.40
2018-03-17T16:57:42.197Z,96.80
2018-03-17T17:00:10.382Z,97.10
2018-03-17T17:02:38.489Z,97.90
2018-03-17T17:05:06.636Z,98.40
2018-03-17T17:07:34.841Z,98.00
2018-03-17T17:10:03.001Z,98.10
2018-03-17T17:12:31.099Z,98.40
2018-03-17T17:14:59.247Z,98.30
2018-03-17T17:17:27.412Z,98.60
2018-03-17T17:19:55.522Z,98.80
2018-03-17T17:22:23.656Z,99.10
2018-03-17T17:24:52.498Z,99.60
2018-03-17T17:27:20.672Z,99.60
2018-03-17T17:29:48.862Z,99.90
2018-03-17T17:32:17.187Z,99.90
2018-03-17T17:34:45.321Z,99.90
2018-03-17T17:37:13.420Z,99.90
2018-03-17T17:39:41.540Z,99.90
2018-03-17T17:42:09.655Z,99.90
2018-03-17T17:44:38.543Z,99.90
2018-03-17T17:47:06.631Z,99.90
2018-03-17T17:49:35.649Z,99.90
2018-03-17T17:52:03.796Z,99.90
2018-03-17T17:54:31.882Z,99.90
2018-03-17T17:57:00.008Z,99.90
2018-03-17T17:59:28.447Z,99.90
2018-03-17T18:01:56.592Z,99.90
2018-03-17T18:04:25.452Z,99.90
2018-03-17T18:06:54.575Z,99.90
2018-03-17T18:09:23.749Z,99.90
2018-03-17T18:11:51.839Z,99.90
2018-03-17T18:14:19.955Z,99.90
2018-03-17T18:16:48.155Z,99.90
2018-03-17T18:19:16.309Z,99.90
2018-03-17T18:21:44.517Z,99.90
2018-03-17T18:24:12.773Z,99.90
2018-03-17T18:26:40.994Z,99.90
2018-03-17T18:29:09.100Z,99.90
2018-03-17T18:31:37.950Z,99.90
2018-03-17T18:34:06.097Z,99.90
2018-03-17T18:36:34.474Z,99.90
2018-03-17T18:39:03.343Z,99.90
2018-03-17T18:41:31.454Z,99.90
2018-03-17T18:43:59.564Z,99.90
2018-03-17T18:46:27.663Z,99.90
2018-03-17T18:48:55.784Z,99.90
2018-03-17T18:51:23.904Z,99.90
2018-03-17T18:53:52.012Z,99.90
2018-03-17T18:56:20.265Z,99.90
2018-03-17T18:58:48.378Z,99.90
2018-03-17T19:01:16.581Z,99.90
2018-03-17T19:03:44.716Z,99.90
2018-03-17T19:06:13.604Z,99.90
2018-03-17T19:08:41.731Z,99.90
2018-03-17T19:11:10.729Z,99.90
2018-03-17T19:13:38.759Z,99.90
2018-03-17T19:16:07.304Z,99.90
2018-03-17T19:18:35.415Z,99.90
2018-03-17T19:21:03.577Z,99.90
2018-03-17T19:23:31.638Z,99.90
2018-03-17T19:25:59.725Z,99.90
2018-03-17T19:28:28.679Z,99.90
2018-03-17T19:30:56.886Z,99.90
2018-03-17T19:33:25.020Z,99.90
2018-03-17T19:35:53.417Z,99.90
2018-03-17T19:38:22.376Z,99.90
2018-03-17T19:40:50.466Z,99.90
2018-03-17T19:43:18.597Z,99.90
2018-03-17T19:45:46.798Z,99.90
2018-03-17T19:48:14.921Z,99.90
2018-03-17T19:50:43.032Z,99.90
2018-03-17T19:53:11.257Z,99.90
2018-03-17T19:55:39.436Z,99.90
2018-03-17T19:58:07.556Z,99.90
2018-03-17T20:00:35.694Z,99.90
2018-03-17T20:03:03.857Z,99.90
2018-03-17T20:05:32.727Z,99.90
2018-03-17T20:08:00.814Z,99.90
2018-03-17T20:10:28.926Z,99.90
2018-03-17T20:12:57.811Z,99.90
2018-03-17T20:15:25.926Z,99.90
2018-03-17T20:17:54.022Z,99.90
2018-03-17T20:20:22.139Z,99.90
2018-03-17T20:22:50.246Z,99.90
2018-03-17T20:25:19.108Z,99.90
2018-03-17T20:27:47.286Z,99.90
2018-03-17T20:30:15.404Z,99.90
2018-03-17T20:32:43.736Z,99.90
2018-03-17T20:35:11.822Z,99.90
2018-03-17T20:37:40.824Z,99.90
2018-03-17T20:40:10.215Z,99.90
2018-03-17T20:42:39.194Z,99.90
2018-03-17T20:45:07.617Z,99.90
2018-03-17T20:47:36.535Z,99.90
2018-03-17T20:50:04.692Z,99.90
2018-03-17T20:52:32.930Z,99.90
2018-03-17T20:55:01.046Z,99.90
2018-03-17T20:57:29.185Z,99.90
2018-03-17T20:59:57.357Z,99.90
2018-03-17T21:02:26.228Z,99.90
2018-03-17T21:04:54.364Z,99.90
2018-03-17T21:07:22.536Z,99.90
2018-03-17T21:09:51.396Z,99.90
2018-03-17T21:12:19.647Z,99.90
2018-03-17T21:14:47.822Z,99.90
2018-03-17T21:17:15.928Z,99.90
2018-03-17T21:19:44.056Z,99.90
2018-03-17T21:22:12.145Z,99.90
2018-03-17T21:24:41.168Z,99.90
2018-03-17T21:27:09.290Z,99.90
2018-03-17T21:29:37.476Z,99.90
2018-03-17T21:32:06.328Z,99.90
2018-03-17T21:34:34.948Z,99.90
2018-03-17T21:37:03.083Z,99.90
2018-03-17T21:39:31.192Z,99.90
2018-03-17T21:42:00.074Z,99.90
2018-03-17T21:44:28.184Z,99.90
2018-03-17T21:46:57.176Z,99.90
2018-03-17T21:49:26.066Z,99.90
2018-03-17T21:51:54.191Z,99.90
2018-03-17T21:54:22.270Z,99.90
2018-03-17T21:56:50.371Z,99.90
2018-03-17T21:59:18.473Z,99.90
2018-03-17T22:01:46.595Z,99.90
2018-03-17T22:04:14.736Z,99.90
2018-03-17T22:06:42.819Z,99.90
2018-03-17T22:09:11.044Z,99.90
2018-03-17T22:11:39.152Z,99.90
2018-03-17T22:14:07.266Z,99.90
2018-03-17T22:16:35.392Z,99.90
2018-03-17T22:19:03.585Z,99.90
2018-03-17T22:21:31.671Z,99.90
2018-03-17T22:23:59.794Z,99.90
2018-03-17T22:26:27.907Z,99.90
2018-03-17T22:28:56.109Z,99.90
2018-03-17T22:31:24.218Z,99.90
2018-03-17T22:34:19.132Z,99.90
2018-03-17T22:36:48.083Z,99.90
2018-03-17T22:39:16.489Z,99.90
2018-03-17T22:42:08.286Z,99.90
2018-03-17T22:44:36.552Z,99.90
2018-03-17T22:47:05.472Z,99.90
2018-03-17T22:49:34.885Z,99.90
2018-03-17T22:52:08.529Z,99.90
2018-03-17T22:54:36.612Z,99.90
2018-03-17T22:57:13.066Z,99.90
2018-03-17T22:59:42.295Z,99.90
2018-03-17T23:02:10.480Z,99.90
2018-03-17T23:04:39.318Z,99.90
2018-03-17T23:07:07.426Z,99.90
2018-03-17T23:09:35.554Z,99.90
2018-03-17T23:12:04.321Z,99.90
2018-03-17T23:14:32.523Z,99.90
2018-03-17T23:17:01.375Z,99.90
2018-03-17T23:19:29.495Z,99.90
2018-03-17T23:21:57.631Z,99.90
2018-03-17T23:24:39.328Z,99.90
2018-03-17T23:27:09.137Z,99.90
2018-03-17T23:29:37.232Z,99.90
2018-03-17T23:32:05.365Z,99.90
2018-03-17T23:34:33.896Z,99.90
2018-03-17T23:37:02.340Z,99.90
2018-03-17T23:39:30.479Z,99.90
2018-03-17T23:41:58.562Z,99.90
2018-03-17T23:44:26.676Z,99.90
2018-03-17T23:46:54.791Z,99.90
2018-03-17T23:49:23.542Z,99.90
2018-03-17T23:51:51.865Z,99.90
2018-03-17T23:54:20.003Z,99.90
2018-03-17T23:56:48.097Z,99.90
2018-03-17T23:59:16.188Z,99.90
